createdAt,value
2023-03-06T00:01:35.531Z,98267.19
2023-03-06T00:04:37.466Z,98266.22
2023-03-06T00:07:39.538Z,98261.34
2023-03-06T00:10:41.485Z,98261.44
2023-03-06T00:13:43.342Z,98259.91
2023-03-06T00:16:45.219Z,98256.78
2023-03-06T00:19:47.251Z,98260.13
2023-03-06T00:22:49.717Z,98254.50
2023-03-06T00:25:51.952Z,98255.94
2023-03-06T00:28:53.858Z,98252.34
2023-03-06T00:31:55.873Z,98267.88
2023-03-06T00:34:57.879Z,98260.94
2023-03-06T00:37:59.950Z,98265.47
2023-03-06T00:41:10.463Z,98267.38
2023-03-06T00:44:12.387Z,98260.47
2023-03-06T00:47:17.376Z,98262.25
2023-03-06T00:50:19.358Z,98257.09
2023-03-06T00:53:21.305Z,98264.75
2023-03-06T00:56:24.138Z,98265.47
2023-03-06T00:59:27.695Z,98262.97
2023-03-06T01:02:29.641Z,98265.25
2023-03-06T01:05:34.795Z,98258.31
2023-03-06T01:08:40.689Z,98262.72
2023-03-06T01:11:42.627Z,98264.53
2023-03-06T01:14:48.156Z,98262.84
2023-03-06T01:17:57.177Z,98262.97
2023-03-06T01:21:01.459Z,98263.69
2023-03-06T01:24:06.614Z,98268.09
2023-03-06T01:27:08.573Z,98267.25
2023-03-06T01:30:11.628Z,98267.16
2023-03-06T01:33:14.766Z,98263.81
2023-03-06T01:36:19.077Z,98275.97
2023-03-06T01:39:21.016Z,98271.09
2023-03-06T01:42:23.006Z,98276.44
2023-03-06T01:45:24.865Z,98266.19
2023-03-06T01:48:26.898Z,98268.78
2023-03-06T01:51:37.780Z,98276.78
2023-03-06T01:54:46.749Z,98274.28
2023-03-06T01:57:53.324Z,98274.28
2023-03-06T02:00:55.363Z,98271.88
2023-03-06T02:04:01.577Z,98270.22
2023-03-06T02:07:05.001Z,98263.41
2023-03-06T02:10:10.215Z,98265.19
2023-03-06T02:13:12.146Z,98271.28
2023-03-06T02:16:14.833Z,98259.94
2023-03-06T02:19:43.412Z,98266.38
2023-03-06T02:23:03.968Z,98269.00
2023-03-06T02:26:08.539Z,98265.66
2023-03-06T02:29:10.892Z,98263.84
2023-03-06T02:32:12.930Z,98270.19
2023-03-06T02:35:38.671Z,98257.28
2023-03-06T02:38:48.560Z,98263.72
2023-03-06T02:41:51.080Z,98260.25
2023-03-06T02:44:57.267Z,98268.47
2023-03-06T02:48:00.499Z,98265.84
2023-03-06T02:51:03.771Z,98266.06
2023-03-06T02:54:07.374Z,98262.94
2023-03-06T02:57:09.351Z,98256.63
2023-03-06T03:00:12.293Z,98262.84
2023-03-06T03:03:17.019Z,98258.31
2023-03-06T03:06:18.886Z,98260.31
2023-03-06T03:09:21.561Z,98261.38
2023-03-06T03:12:23.758Z,98259.47
2023-03-06T03:15:26.295Z,98258.88
2023-03-06T03:18:29.069Z,98258.75
2023-03-06T03:21:31.205Z,98262.22
2023-03-06T03:24:33.697Z,98254.69
2023-03-06T03:27:35.965Z,98257.31
2023-03-06T03:30:41.108Z,98259.22
2023-03-06T03:33:44.207Z,98262.69
2023-03-06T03:36:49.838Z,98253.00
2023-03-06T03:39:52.018Z,98247.03
2023-03-06T03:42:54.057Z,98252.41
2023-03-06T03:45:55.877Z,98243.59
2023-03-06T03:49:01.986Z,98237.50
2023-03-06T03:52:04.300Z,98238.22
2023-03-06T03:55:09.354Z,98232.13
2023-03-06T03:58:13.595Z,98234.97
2023-03-06T04:01:15.974Z,98233.31
2023-03-06T04:04:21.258Z,98242.84
2023-03-06T04:07:23.872Z,98238.19
2023-03-06T04:10:25.766Z,98242.25
2023-03-06T04:13:30.129Z,98244.25
2023-03-06T04:16:37.072Z,98239.22
2023-03-06T04:19:39.156Z,98249.41
2023-03-06T04:22:42.296Z,98251.06
2023-03-06T04:25:46.034Z,98246.66
2023-03-06T04:28:48.546Z,98259.06
2023-03-06T04:31:50.971Z,98257.75
2023-03-06T04:34:52.850Z,98262.50
2023-03-06T04:37:55.532Z,98271.59
2023-03-06T04:40:58.987Z,98270.44
2023-03-06T04:44:01.123Z,98265.69
2023-03-06T04:47:03.186Z,98268.19
2023-03-06T04:50:05.936Z,98264.41
2023-03-06T04:53:08.787Z,98268.00
2023-03-06T04:56:10.763Z,98268.06
2023-03-06T04:59:12.672Z,98268.13
2023-03-06T05:02:14.566Z,98260.50
2023-03-06T05:05:18.865Z,98276.41
2023-03-06T05:08:20.966Z,98270.53
2023-03-06T05:11:22.910Z,98271.63
2023-03-06T05:14:24.862Z,98278.56
2023-03-06T05:17:26.829Z,98272.22
2023-03-06T05:20:30.929Z,98271.84
2023-03-06T05:23:35.496Z,98269.56
2023-03-06T05:26:37.410Z,98261.38
2023-03-06T05:29:41.984Z,98263.88
2023-03-06T05:32:47.186Z,98273.03
2023-03-06T05:35:51.569Z,98275.41
2023-03-06T05:38:53.549Z,98273.59
2023-03-06T05:41:55.487Z,98275.88
2023-03-06T05:44:57.311Z,98283.25
2023-03-06T05:47:59.179Z,98280.38
2023-03-06T05:51:02.397Z,98281.94
2023-03-06T05:54:04.329Z,98283.09
2023-03-06T05:57:06.426Z,98291.44
2023-03-06T06:00:09.289Z,98298.69
2023-03-06T06:03:20.565Z,98295.03
2023-03-06T06:06:22.378Z,98298.13
2023-03-06T06:09:25.503Z,98304.44
2023-03-06T06:12:27.862Z,98303.91
2023-03-06T06:15:33.007Z,98314.72
2023-03-06T06:18:35.030Z,98318.13
2023-03-06T06:21:40.349Z,98313.75
2023-03-06T06:24:42.322Z,98317.78
2023-03-06T06:27:44.326Z,98315.78
2023-03-06T06:30:46.229Z,98312.19
2023-03-06T06:33:48.248Z,98309.84
2023-03-06T06:36:53.425Z,98312.94
2023-03-06T06:39:55.665Z,98315.69
2023-03-06T06:42:57.519Z,98318.25
2023-03-06T06:46:16.455Z,98310.25
2023-03-06T06:49:21.389Z,98304.19
2023-03-06T06:52:24.756Z,98313.38
2023-03-06T06:55:27.212Z,98305.19
2023-03-06T06:58:29.052Z,98314.97
2023-03-06T07:01:31.063Z,98317.03
2023-03-06T07:04:33.212Z,98323.31
2023-03-06T07:07:40.572Z,98317.06
2023-03-06T07:10:42.492Z,98326.56
2023-03-06T07:13:47.060Z,98324.75
2023-03-06T07:16:49.028Z,98327.94
2023-03-06T07:19:53.417Z,98321.00
2023-03-06T07:22:56.591Z,98321.44
2023-03-06T07:25:58.582Z,98324.34
2023-03-06T07:29:00.568Z,98334.66
2023-03-06T07:32:05.143Z,98319.91
2023-03-06T07:35:19.661Z,98329.38
2023-03-06T07:38:22.310Z,98330.06
2023-03-06T07:41:24.167Z,98340.50
2023-03-06T07:44:27.831Z,98338.84
2023-03-06T07:47:29.746Z,98337.88
2023-03-06T07:50:32.952Z,98344.81
2023-03-06T07:53:35.500Z,98350.94
2023-03-06T07:56:37.422Z,98340.09
2023-03-06T07:59:39.365Z,98345.38
2023-03-06T08:03:41.967Z,98352.34
2023-03-06T08:06:43.820Z,98353.03
2023-03-06T08:09:48.184Z,98356.94
2023-03-06T08:12:50.029Z,98359.44
2023-03-06T08:15:51.910Z,98358.19
2023-03-06T08:18:54.076Z,98352.06
2023-03-06T08:21:56.032Z,98352.03
2023-03-06T08:24:57.911Z,98354.81
2023-03-06T08:28:00.869Z,98348.28
2023-03-06T08:31:13.037Z,98358.03
2023-03-06T08:34:20.084Z,98363.31
2023-03-06T08:37:24.111Z,98365.41
2023-03-06T08:40:30.454Z,98362.63
2023-03-06T08:43:32.368Z,98368.19
2023-03-06T08:46:35.807Z,98367.63
2023-03-06T08:49:39.717Z,98368.34
2023-03-06T08:52:41.596Z,98365.84
2023-03-06T08:55:43.603Z,98365.53
2023-03-06T08:58:46.061Z,98363.88
2023-03-06T09:01:48.050Z,98365.28
2023-03-06T09:04:50.059Z,98366.94
2023-03-06T09:07:52.110Z,98367.50
2023-03-06T09:10:55.107Z,98371.13
2023-03-06T09:13:59.798Z,98365.69
2023-03-06T09:17:01.765Z,98369.88
2023-03-06T09:20:06.098Z,98368.75
2023-03-06T09:23:12.201Z,98371.13
2023-03-06T09:26:14.403Z,98377.09
2023-03-06T09:29:17.212Z,98367.09
2023-03-06T09:32:19.382Z,98372.38
2023-03-06T09:35:21.396Z,98368.63
2023-03-06T09:38:27.837Z,98365.56
2023-03-06T09:41:33.162Z,98362.22
2023-03-06T09:44:38.687Z,98358.72
2023-03-06T09:48:02.124Z,98359.94
2023-03-06T09:51:13.912Z,98357.16
2023-03-06T09:54:16.432Z,98356.41
2023-03-06T09:57:31.999Z,98350.06
2023-03-06T10:00:46.792Z,98346.31
2023-03-06T10:04:03.710Z,98347.34
2023-03-06T10:07:15.739Z,98331.16
2023-03-06T10:10:42.808Z,98330.66
2023-03-06T10:13:51.964Z,98329.00
2023-03-06T10:16:54.712Z,98333.09
2023-03-06T10:19:59.045Z,98332.28
2023-03-06T10:23:23.695Z,98328.59
2023-03-06T10:26:36.376Z,98324.38
2023-03-06T10:30:06.876Z,98321.56
2023-03-06T10:33:12.592Z,98321.56
2023-03-06T10:36:19.372Z,98312.03
2023-03-06T10:39:22.988Z,98314.16
2023-03-06T10:42:25.069Z,98310.91
2023-03-06T10:45:35.205Z,98312.41
2023-03-06T10:48:42.877Z,98298.16
2023-03-06T10:52:03.239Z,98300.44
2023-03-06T10:55:26.011Z,98299.53
2023-03-06T10:58:30.662Z,98296.41
2023-03-06T11:01:32.849Z,98296.13
2023-03-06T11:04:36.610Z,98295.44
2023-03-06T11:07:54.254Z,98296.81
2023-03-06T11:11:09.264Z,98295.75
2023-03-06T11:14:22.965Z,98297.56
2023-03-06T11:17:32.176Z,98303.81
2023-03-06T11:20:52.622Z,98302.16
2023-03-06T11:23:58.963Z,98297.25
2023-03-06T11:27:09.361Z,98293.91
2023-03-06T11:30:27.041Z,98307.94
2023-03-06T11:33:46.515Z,98301.88
2023-03-06T11:36:56.576Z,98312.63
2023-03-06T11:40:10.632Z,98310.19
2023-03-06T11:43:31.871Z,98309.13
2023-03-06T11:46:48.771Z,98320.75
2023-03-06T11:50:20.471Z,98319.19
2023-03-06T11:53:44.402Z,98319.63
2023-03-06T11:56:59.962Z,98324.16
2023-03-06T12:00:05.084Z,98330.22
2023-03-06T12:03:25.988Z,98330.13
2023-03-06T12:06:51.627Z,98322.72
2023-03-06T12:10:32.770Z,98332.97
2023-03-06T12:14:10.262Z,98345.75
2023-03-06T12:17:23.966Z,98337.06
2023-03-06T12:20:40.175Z,98343.47
2023-03-06T12:24:16.237Z,98345.59
2023-03-06T12:27:33.286Z,98359.28
2023-03-06T12:31:06.010Z,98354.00
2023-03-06T12:34:18.747Z,98360.69
2023-03-06T12:37:31.062Z,98354.25
2023-03-06T12:40:51.682Z,98363.72
2023-03-06T12:43:59.394Z,98368.47
2023-03-06T12:47:10.420Z,98369.84
2023-03-06T12:50:23.573Z,98374.41
2023-03-06T12:53:28.062Z,98375.22
2023-03-06T12:56:34.119Z,98386.06
2023-03-06T12:59:39.309Z,98379.78
2023-03-06T13:03:06.649Z,98388.16
2023-03-06T13:06:25.581Z,98389.00
2023-03-06T13:09:56.842Z,98391.66
2023-03-06T13:13:05.156Z,98392.34
2023-03-06T13:16:21.569Z,98390.69
2023-03-06T13:19:27.648Z,98399.47
2023-03-06T13:22:30.045Z,98402.84
2023-03-06T13:25:32.747Z,98409.09
2023-03-06T13:28:53.288Z,98411.63
2023-03-06T13:32:06.179Z,98416.78
2023-03-06T13:35:32.257Z,98421.78
2023-03-06T13:38:53.160Z,98439.91
2023-03-06T13:42:03.373Z,98439.63
2023-03-06T13:45:15.685Z,98442.41
2023-03-06T13:48:47.672Z,98445.75
2023-03-06T13:52:19.520Z,98448.81
2023-03-06T13:55:50.530Z,98453.41
2023-03-06T13:59:14.329Z,98452.28
2023-03-06T14:02:37.399Z,98451.88
2023-03-06T14:05:48.729Z,98455.34
2023-03-06T14:08:51.248Z,98452.84
2023-03-06T14:12:02.424Z,98454.34
2023-03-06T14:15:16.417Z,98460.22
2023-03-06T14:18:40.009Z,98455.78
2023-03-06T14:21:51.228Z,98454.38
2023-03-06T14:25:00.760Z,98461.91
2023-03-06T14:28:13.545Z,98451.56
2023-03-06T14:31:21.318Z,98461.19
2023-03-06T14:34:25.206Z,98459.38
2023-03-06T14:37:29.125Z,98462.31
2023-03-06T14:40:44.071Z,98467.75
2023-03-06T14:43:46.165Z,98466.75
2023-03-06T14:46:50.816Z,98480.69
2023-03-06T14:50:30.394Z,98480.13
2023-03-06T14:53:34.251Z,98484.81
2023-03-06T14:56:42.085Z,98493.44
2023-03-06T14:59:58.746Z,98489.84
2023-03-06T15:03:01.347Z,98501.50
2023-03-06T15:06:08.892Z,98498.53
2023-03-06T15:09:25.547Z,98503.81
2023-03-06T15:12:27.358Z,98503.94
2023-03-06T15:15:32.662Z,98514.06
2023-03-06T15:18:39.040Z,98514.88
2023-03-06T15:21:41.057Z,98508.63
2023-03-06T15:24:43.004Z,98515.28
2023-03-06T15:27:56.914Z,98525.13
2023-03-06T15:31:23.522Z,98526.06
2023-03-06T15:34:25.692Z,98521.03
2023-03-06T15:37:28.967Z,98528.25
2023-03-06T15:40:31.981Z,98531.28
2023-03-06T15:43:42.238Z,98538.91
2023-03-06T15:46:44.358Z,98543.91
2023-03-06T15:49:46.461Z,98549.47
2023-03-06T15:52:49.518Z,98558.03
2023-03-06T15:55:53.267Z,98560.59
2023-03-06T15:58:56.400Z,98555.31
2023-03-06T16:02:02.600Z,98565.88
2023-03-06T16:05:17.661Z,98569.50
2023-03-06T16:08:19.839Z,98569.28
2023-03-06T16:11:41.920Z,98575.19
2023-03-06T16:14:49.071Z,98584.09
2023-03-06T16:17:56.146Z,98587.09
2023-03-06T16:20:59.112Z,98592.63
2023-03-06T16:24:00.929Z,98595.41
2023-03-06T16:27:03.188Z,98595.41
2023-03-06T16:30:05.591Z,98601.91
2023-03-06T16:33:10.655Z,98603.81
2023-03-06T16:36:14.831Z,98604.53
2023-03-06T16:39:22.344Z,98607.16
2023-03-06T16:42:24.253Z,98610.91
2023-03-06T16:45:26.616Z,98611.72
2023-03-06T16:48:28.514Z,98624.34
2023-03-06T16:51:33.373Z,98623.38
2023-03-06T16:54:35.166Z,98623.38
2023-03-06T16:57:37.062Z,98624.34
2023-03-06T17:00:41.296Z,98629.03
2023-03-06T17:03:43.416Z,98632.88
2023-03-06T17:06:47.680Z,98639.94
2023-03-06T17:09:50.583Z,98639.25
2023-03-06T17:12:52.461Z,98641.03
2023-03-06T17:15:59.527Z,98638.78
2023-03-06T17:19:02.513Z,98629.66
2023-03-06T17:22:04.456Z,98646.81
2023-03-06T17:25:09.298Z,98638.31
2023-03-06T17:28:11.455Z,98636.28
2023-03-06T17:31:18.868Z,98647.09
2023-03-06T17:34:22.077Z,98649.25
2023-03-06T17:37:25.567Z,98652.47
2023-03-06T17:40:30.577Z,98645.66
2023-03-06T17:43:32.625Z,98652.97
2023-03-06T17:46:36.906Z,98656.56
2023-03-06T17:49:38.805Z,98654.41
2023-03-06T17:52:43.575Z,98656.31
2023-03-06T17:55:45.562Z,98653.91
2023-03-06T17:58:49.934Z,98658.34
2023-03-06T18:01:51.825Z,98653.91
2023-03-06T18:04:58.744Z,98660.75
2023-03-06T18:08:00.687Z,98663.38
2023-03-06T18:11:04.431Z,98665.19
2023-03-06T18:14:06.323Z,98669.50
2023-03-06T18:17:08.258Z,98669.50
2023-03-06T18:20:12.887Z,98667.69
2023-03-06T18:23:14.815Z,98673.94
2023-03-06T18:26:24.158Z,98679.09
2023-03-06T18:29:28.285Z,98678.13
2023-03-06T18:32:30.236Z,98680.75
2023-03-06T18:35:36.018Z,98681.34
2023-03-06T18:38:45.728Z,98684.72
2023-03-06T18:41:47.860Z,98679.44
2023-03-06T18:44:49.764Z,98686.28
2023-03-06T18:47:51.741Z,98694.78
2023-03-06T18:50:53.725Z,98684.25
2023-03-06T18:54:00.371Z,98688.44
2023-03-06T18:57:05.124Z,98688.31
2023-03-06T19:00:08.273Z,98695.88
2023-03-06T19:03:13.563Z,98686.03
2023-03-06T19:06:21.349Z,98693.72
2023-03-06T19:09:23.239Z,98690.13
2023-03-06T19:12:25.065Z,98695.25
2023-03-06T19:15:26.916Z,98691.56
2023-03-06T19:18:31.857Z,98695.03
2023-03-06T19:21:33.787Z,98698.50
2023-03-06T19:24:35.696Z,98699.22
2023-03-06T19:27:39.988Z,98711.22
2023-03-06T19:30:41.897Z,98697.06
2023-03-06T19:33:44.096Z,98704.84
2023-03-06T19:36:45.877Z,98707.25
2023-03-06T19:39:47.720Z,98701.84
2023-03-06T19:42:50.334Z,98701.84
2023-03-06T19:45:52.277Z,98707.13
2023-03-06T19:48:59.161Z,98701.84
2023-03-06T19:52:01.558Z,98700.78
2023-03-06T19:55:03.692Z,98704.25
2023-03-06T19:58:05.999Z,98704.25
2023-03-06T20:01:11.230Z,98695.38
2023-03-06T20:04:13.144Z,98703.28
2023-03-06T20:07:15.043Z,98696.81
2023-03-06T20:10:17.413Z,98693.22
2023-03-06T20:13:19.268Z,98698.72
2023-03-06T20:16:21.151Z,98695.13
2023-03-06T20:19:22.999Z,98692.25
2023-03-06T20:22:25.226Z,98689.50
2023-03-06T20:25:27.101Z,98690.31
2023-03-06T20:28:28.987Z,98700.88
2023-03-06T20:31:31.220Z,98695.59
2023-03-06T20:34:33.215Z,98687.69
2023-03-06T20:37:35.155Z,98688.41
2023-03-06T20:40:42.432Z,98689.25
2023-03-06T20:43:44.584Z,98683.97
2023-03-06T20:46:49.939Z,98686.47
2023-03-06T20:49:51.838Z,98686.38
2023-03-06T20:52:58.484Z,98681.81
2023-03-06T20:56:00.314Z,98689.59
2023-03-06T20:59:03.232Z,98686.84
2023-03-06T21:02:09.732Z,98683.34
2023-03-06T21:05:11.716Z,98687.66
2023-03-06T21:08:14.583Z,98682.38
2023-03-06T21:11:18.459Z,98670.03
2023-03-06T21:14:20.348Z,98671.00
2023-03-06T21:17:22.158Z,98668.25
2023-03-06T21:20:24.438Z,98673.50
2023-03-06T21:23:26.351Z,98673.50
2023-03-06T21:26:30.144Z,98671.72
2023-03-06T21:29:32.112Z,98683.09
2023-03-06T21:32:36.674Z,98675.19
2023-03-06T21:35:40.313Z,98674.22
2023-03-06T21:38:44.809Z,98666.56
2023-03-06T21:41:46.706Z,98679.75
2023-03-06T21:44:51.003Z,98686.25
2023-03-06T21:47:55.705Z,98687.31
2023-03-06T21:51:05.020Z,98685.41
2023-03-06T21:54:07.247Z,98683.84
2023-03-06T21:57:09.088Z,98687.19
2023-03-06T22:00:12.939Z,98695.13
2023-03-06T22:03:14.851Z,98686.38
2023-03-06T22:06:31.414Z,98682.88
2023-03-06T22:09:36.076Z,98689.00
2023-03-06T22:12:43.537Z,98680.00
2023-03-06T22:15:55.203Z,98675.81
2023-03-06T22:18:57.154Z,98682.88
2023-03-06T22:21:59.020Z,98682.03
2023-03-06T22:25:00.870Z,98681.94
2023-03-06T22:28:05.311Z,98694.16
2023-03-06T22:31:15.641Z,98690.56
2023-03-06T22:34:17.865Z,98679.16
2023-03-06T22:37:21.988Z,98686.97
2023-03-06T22:40:24.213Z,98687.66
2023-03-06T22:43:27.578Z,98688.50
2023-03-06T22:46:30.463Z,98692.22
2023-03-06T22:49:32.770Z,98698.22
2023-03-06T22:52:37.055Z,98697.25
2023-03-06T22:55:38.871Z,98693.66
2023-03-06T22:58:40.913Z,98692.81
2023-03-06T23:01:43.955Z,98696.31
2023-03-06T23:04:48.503Z,98691.28
2023-03-06T23:07:51.301Z,98694.38
2023-03-06T23:10:53.245Z,98696.06
2023-03-06T23:14:16.615Z,98685.50
2023-03-06T23:17:39.227Z,98692.94
2023-03-06T23:21:01.905Z,98688.63
2023-03-06T23:24:22.599Z,98686.13
2023-03-06T23:27:24.462Z,98687.31
2023-03-06T23:30:26.679Z,98673.41
2023-03-06T23:33:28.629Z,98673.66
2023-03-06T23:36:31.259Z,98662.50
2023-03-06T23:39:33.743Z,98666.59
2023-03-06T23:42:35.783Z,98663.50
2023-03-06T23:45:37.671Z,98673.19
2023-03-06T23:48:40.893Z,98664.44
2023-03-06T23:51:42.794Z,98654.16
2023-03-06T23:54:44.622Z,98658.69
2023-03-06T23:57:46.621Z,98659.53
